Time;durP1;ratioP1;P1;durP2;ratioP2;P2;SDS_P1;SDS_P2;PMS_P1;PMS_P2;Temp;Humidity;BMP_temperature;BMP_pressure;BME280_temperature;BME280_humidity;BME280_pressure;Samples;Min_cycle;Max_cycle;Signal;HPM_P1;HPM_P2
2022/10/21 00:00:58;;;;;;;27.23;16.30;;;21.30;99.90;;;;;;5044783;28;20028;-62
2022/10/21 00:03:28;;;;;;;26.45;16.48;;;21.40;99.90;;;;;;5045228;28;20057;-60
2022/10/21 00:05:56;;;;;;;28.92;14.77;;;21.50;99.90;;;;;;5042811;28;20204;-61
2022/10/21 00:08:24;;;;;;;23.77;15.43;;;21.70;99.90;;;;;;5046196;28;20024;-60
2022/10/21 00:10:57;;;;;;;30.20;15.25;;;21.80;99.90;;;;;;5047520;28;20390;-60
2022/10/21 00:13:26;;;;;;;28.55;15.95;;;21.80;99.90;;;;;;5047329;28;20371;-60
2022/10/21 00:16:01;;;;;;;26.63;16.67;;;21.90;99.90;;;;;;5072581;28;20020;-60
2022/10/21 00:18:29;;;;;;;23.90;15.52;;;22.00;99.90;;;;;;5046910;28;20032;-61
2022/10/21 00:20:56;;;;;;;25.55;15.65;;;22.10;99.90;;;;;;5046616;28;20044;-60
2022/10/21 00:23:24;;;;;;;26.60;16.15;;;22.00;99.90;;;;;;5042276;28;20029;-60
2022/10/21 00:25:57;;;;;;;27.90;16.98;;;22.00;99.90;;;;;;5045815;28;20718;-60
2022/10/21 00:28:24;;;;;;;31.58;15.07;;;22.00;99.90;;;;;;5041041;28;20454;-60
2022/10/21 00:30:52;;;;;;;26.90;15.38;;;21.80;99.90;;;;;;5035447;28;20025;-60
2022/10/21 00:33:19;;;;;;;26.33;16.20;;;21.80;99.90;;;;;;5045089;28;20115;-60
2022/10/21 00:36:01;;;;;;;31.70;16.35;;;21.70;99.90;;;;;;5050162;28;20033;-59
2022/10/21 00:38:30;;;;;;;27.80;16.13;;;21.80;99.90;;;;;;5048992;28;20036;-60
2022/10/21 00:40:58;;;;;;;25.27;14.50;;;21.90;99.90;;;;;;5046933;28;20021;-59
2022/10/21 00:43:26;;;;;;;22.95;14.75;;;22.10;99.90;;;;;;5046771;28;20028;-60
2022/10/21 00:46:06;;;;;;;23.35;15.07;;;22.20;99.90;;;;;;5076694;28;20020;-59
2022/10/21 00:48:35;;;;;;;21.60;14.40;;;22.40;99.90;;;;;;5044887;28;20383;-60
2022/10/21 00:51:16;;;;;;;18.77;12.18;;;22.60;99.90;;;;;;5043733;28;20025;-60
2022/10/21 00:53:46;;;;;;;18.40;12.40;;;22.70;99.90;;;;;;5044089;28;20045;-59
2022/10/21 00:56:19;;;;;;;16.63;11.73;;;22.70;99.90;;;;;;5051094;28;20389;-64
2022/10/21 00:58:48;;;;;;;17.58;11.38;;;22.80;99.90;;;;;;5054494;28;20041;-67
2022/10/21 01:01:16;;;;;;;17.30;10.23;;;22.80;99.90;;;;;;5046422;28;20074;-62
2022/10/21 01:03:43;;;;;;;20.50;11.43;;;23.00;99.90;;;;;;5045123;28;20085;-63
2022/10/21 01:06:13;;;;;;;13.57;10.05;;;23.30;99.90;;;;;;5045546;28;20025;-62
2022/10/21 01:08:40;;;;;;;17.25;10.73;;;23.60;99.90;;;;;;5044129;28;20076;-63
2022/10/21 01:11:13;;;;;;;15.48;10.73;;;24.00;99.90;;;;;;5040702;28;20032;-63
2022/10/21 01:13:47;;;;;;;11.98;9.63;;;24.40;99.90;;;;;;5039623;28;20033;-62
2022/10/21 01:16:20;;;;;;;14.63;8.43;;;24.80;99.90;;;;;;5039992;28;21781;-63
2022/10/21 01:19:16;;;;;;;12.40;8.82;;;24.90;99.30;;;;;;5040235;28;21356;-62
2022/10/21 01:21:53;;;;;;;15.90;8.73;;;24.80;99.20;;;;;;5044258;28;20143;-62
2022/10/21 01:24:29;;;;;;;12.48;8.32;;;24.80;99.30;;;;;;5049314;28;20449;-61
2022/10/21 01:27:08;;;;;;;9.95;8.23;;;24.80;99.20;;;;;;5043043;28;20437;-59
2022/10/21 01:29:47;;;;;;;9.90;7.53;;;24.90;99.90;;;;;;5043464;28;20060;-60
2022/10/21 01:32:46;;;;;;;10.82;7.00;;;25.00;99.00;;;;;;5044801;28;20056;-60
2022/10/21 01:35:34;;;;;;;7.68;6.20;;;24.90;99.00;;;;;;5044305;28;20497;-59
2022/10/21 01:38:19;;;;;;;7.60;6.07;;;24.90;99.00;;;;;;5050689;28;20021;-60
2022/10/21 01:41:24;;;;;;;7.18;5.60;;;25.00;98.30;;;;;;5047249;28;20497;-62
2022/10/21 01:44:02;;;;;;;8.55;5.75;;;24.90;98.30;;;;;;5027483;28;20460;-63
2022/10/21 01:46:39;;;;;;;6.32;5.40;;;25.00;98.80;;;;;;5052467;28;20020;-62
2022/10/21 01:49:28;;;;;;;10.63;5.18;;;25.10;98.10;;;;;;5042886;28;20038;-61
2022/10/21 01:51:56;;;;;;;7.72;5.38;;;25.40;97.40;;;;;;5059367;28;20056;-62
2022/10/21 01:54:28;;;;;;;7.90;6.00;;;25.80;97.40;;;;;;5060270;28;20111;-60
2022/10/21 01:56:57;;;;;;;8.07;4.90;;;26.00;96.20;;;;;;5052282;28;20025;-60
2022/10/21 01:59:26;;;;;;;8.43;5.05;;;25.90;95.30;;;;;;5045607;28;20025;-60
2022/10/21 02:01:56;;;;;;;5.30;3.90;;;26.10;95.60;;;;;;5051114;28;20025;-60
2022/10/21 02:04:24;;;;;;;8.98;3.97;;;26.20;94.40;;;;;;5051099;28;20056;-61
2022/10/21 02:06:52;;;;;;;6.03;3.88;;;26.20;93.70;;;;;;5046125;28;20398;-60
2022/10/21 02:09:24;;;;;;;9.00;4.07;;;26.30;94.40;;;;;;5052112;28;20552;-60
2022/10/21 02:11:56;;;;;;;7.07;4.13;;;26.30;92.60;;;;;;5053698;28;20040;-60
2022/10/21 02:14:43;;;;;;;5.85;3.63;;;26.40;92.80;;;;;;5053361;28;20116;-60
2022/10/21 02:17:13;;;;;;;6.10;4.00;;;26.40;93.00;;;;;;5052632;28;20639;-59
2022/10/21 02:19:40;;;;;;;5.22;3.35;;;26.60;93.10;;;;;;5052894;28;20051;-60
2022/10/21 02:22:10;;;;;;;5.18;3.33;;;26.70;92.20;;;;;;5067561;28;20023;-60
2022/10/21 02:24:51;;;;;;;5.93;3.78;;;26.70;91.40;;;;;;5060796;28;20037;-59
2022/10/21 02:27:19;;;;;;;5.70;3.63;;;26.60;93.10;;;;;;5051347;28;20493;-59
2022/10/21 02:29:51;;;;;;;6.35;4.18;;;26.60;91.60;;;;;;5051790;28;20021;-60
2022/10/21 02:32:35;;;;;;;5.30;3.92;;;26.50;92.80;;;;;;5063606;28;20037;-61
2022/10/21 02:35:33;;;;;;;3.90;3.45;;;26.50;92.90;;;;;;5042654;28;20026;-60
2022/10/21 02:38:37;;;;;;;6.70;3.80;;;26.50;92.30;;;;;;5047593;28;20016;-59
2022/10/21 02:41:13;;;;;;;5.38;3.38;;;26.60;92.60;;;;;;5025008;28;20025;-59
2022/10/21 02:43:50;;;;;;;4.25;3.55;;;26.70;92.60;;;;;;5051366;28;20029;-59
2022/10/21 02:46:17;;;;;;;4.18;3.53;;;26.70;92.50;;;;;;5035047;28;20143;-59
2022/10/21 02:48:46;;;;;;;4.88;3.78;;;26.70;91.40;;;;;;5051014;28;20032;-59
2022/10/21 02:51:15;;;;;;;5.55;3.05;;;26.70;90.90;;;;;;5051560;28;20032;-60
2022/10/21 02:53:43;;;;;;;4.85;3.45;;;26.50;91.20;;;;;;5049017;28;20439;-59
2022/10/21 02:56:10;;;;;;;5.47;3.70;;;26.40;92.10;;;;;;5045471;28;20059;-60
2022/10/21 02:58:38;;;;;;;4.38;3.30;;;26.20;92.10;;;;;;5054110;28;20607;-60
2022/10/21 03:01:05;;;;;;;4.53;3.53;;;26.20;91.70;;;;;;5072889;28;20071;-60
2022/10/21 03:03:33;;;;;;;5.68;3.58;;;26.10;92.40;;;;;;5046926;28;20025;-59
2022/10/21 03:06:00;;;;;;;6.65;3.90;;;26.10;92.80;;;;;;5043582;28;20059;-59
2022/10/21 03:08:27;;;;;;;5.22;3.80;;;26.10;92.80;;;;;;5041904;28;20044;-59
2022/10/21 03:10:55;;;;;;;4.20;3.30;;;26.20;92.90;;;;;;5060696;28;20028;-60
2022/10/21 03:13:23;;;;;;;6.97;4.35;;;26.50;92.50;;;;;;5051434;28;20039;-65
2022/10/21 03:15:50;;;;;;;5.43;3.65;;;26.70;91.70;;;;;;5057521;28;20021;-65
2022/10/21 03:18:18;;;;;;;5.95;3.50;;;26.70;91.50;;;;;;5058663;28;20024;-65
2022/10/21 03:20:49;;;;;;;6.63;3.72;;;26.70;91.50;;;;;;5055912;28;20017;-64
2022/10/21 03:23:17;;;;;;;6.45;3.40;;;26.70;91.70;;;;;;5064698;28;20129;-65
2022/10/21 03:25:45;;;;;;;5.80;2.97;;;27.00;91.00;;;;;;5051322;28;20078;-65
2022/10/21 03:28:12;;;;;;;4.53;3.28;;;27.40;90.10;;;;;;5057349;28;20020;-64
2022/10/21 03:30:40;;;;;;;4.63;2.97;;;27.50;90.40;;;;;;5057359;28;20032;-64
2022/10/21 03:33:07;;;;;;;5.05;3.75;;;27.70;89.70;;;;;;5043408;28;20033;-64
2022/10/21 03:35:35;;;;;;;5.43;2.97;;;27.90;88.00;;;;;;5048223;28;20026;-64
2022/10/21 03:38:02;;;;;;;5.47;3.25;;;27.60;87.10;;;;;;5069857;28;20020;-64
2022/10/21 03:40:29;;;;;;;6.55;2.90;;;27.40;88.80;;;;;;5059571;28;20024;-65
2022/10/21 03:42:58;;;;;;;3.88;2.90;;;27.10;87.00;;;;;;5062331;28;20028;-64
2022/10/21 03:45:25;;;;;;;6.72;3.30;;;26.90;89.80;;;;;;5054704;28;20443;-64
2022/10/21 03:47:53;;;;;;;4.45;3.13;;;26.80;90.30;;;;;;5052552;28;20024;-64
2022/10/21 03:50:21;;;;;;;4.25;2.75;;;26.70;88.90;;;;;;5051697;28;20032;-65
2022/10/21 03:52:48;;;;;;;5.00;3.10;;;26.40;88.50;;;;;;5051346;28;20055;-64
2022/10/21 03:55:19;;;;;;;4.00;1.95;;;25.90;90.00;;;;;;5040696;28;20021;-64
2022/10/21 03:57:49;;;;;;;7.05;1.83;;;25.40;91.40;;;;;;5047580;28;20056;-64
2022/10/21 04:00:17;;;;;;;6.90;1.83;;;25.00;92.30;;;;;;5059480;28;20025;-64
2022/10/21 04:02:44;;;;;;;7.15;2.38;;;24.60;93.90;;;;;;5051488;28;20017;-64
2022/10/21 04:05:12;;;;;;;6.28;2.08;;;24.20;95.10;;;;;;5044464;28;20021;-64
2022/10/21 04:07:40;;;;;;;4.03;1.90;;;24.00;96.20;;;;;;5067010;28;20032;-65
2022/10/21 04:10:08;;;;;;;6.15;2.25;;;23.80;97.00;;;;;;5045397;28;20046;-64
2022/10/21 04:12:36;;;;;;;3.70;1.58;;;23.90;97.00;;;;;;5043193;28;20038;-65
2022/10/21 04:15:04;;;;;;;5.78;2.20;;;23.90;96.60;;;;;;5050025;28;20032;-64
2022/10/21 04:17:32;;;;;;;2.92;1.80;;;24.00;96.50;;;;;;5052522;28;20033;-64
2022/10/21 04:19:59;;;;;;;3.33;1.60;;;24.10;95.30;;;;;;5055316;28;20104;-65
2022/10/21 04:22:26;;;;;;;2.88;1.65;;;24.30;96.10;;;;;;5052731;28;20063;-64
2022/10/21 04:24:53;;;;;;;2.45;1.20;;;24.50;94.00;;;;;;5053508;28;20033;-65
2022/10/21 04:27:21;;;;;;;4.13;1.83;;;24.50;93.90;;;;;;5053509;28;20609;-65
2022/10/21 04:29:48;;;;;;;5.07;1.55;;;24.60;93.70;;;;;;5043469;28;20032;-63
2022/10/21 04:32:16;;;;;;;2.28;0.98;;;24.50;95.50;;;;;;5052838;28;20040;-64
2022/10/21 04:34:44;;;;;;;3.92;1.17;;;23.90;95.90;;;;;;5056171;28;20115;-63
2022/10/21 04:37:12;;;;;;;3.63;0.90;;;23.30;98.30;;;;;;5051311;28;20103;-63
2022/10/21 04:39:39;;;;;;;4.78;0.98;;;23.00;99.90;;;;;;5065533;28;20028;-63
2022/10/21 04:42:07;;;;;;;2.50;1.00;;;22.50;99.90;;;;;;5047649;28;20025;-64
2022/10/21 04:44:36;;;;;;;6.57;0.90;;;22.10;99.90;;;;;;5056037;28;20044;-64
2022/10/21 04:47:03;;;;;;;1.52;1.00;;;21.90;99.90;;;;;;5048523;28;20025;-63
2022/10/21 04:49:31;;;;;;;3.38;1.05;;;22.00;99.90;;;;;;5045045;28;20031;-63
2022/10/21 04:51:58;;;;;;;3.08;1.05;;;22.10;99.90;;;;;;5044940;28;20402;-61
2022/10/21 04:54:25;;;;;;;1.33;0.93;;;22.30;99.90;;;;;;5057413;28;20063;-63
2022/10/21 04:56:53;;;;;;;3.65;1.50;;;22.40;99.90;;;;;;5046092;28;20025;-63
2022/10/21 04:59:20;;;;;;;5.03;1.30;;;22.50;99.90;;;;;;5049525;28;20051;-63
2022/10/21 05:01:47;;;;;;;1.33;0.85;;;22.60;99.90;;;;;;5056144;28;20021;-62
2022/10/21 05:04:15;;;;;;;3.03;0.95;;;22.80;99.90;;;;;;5050469;28;20053;-62
2022/10/21 05:06:42;;;;;;;2.90;1.30;;;23.10;99.90;;;;;;5049332;28;20408;-63
2022/10/21 05:09:09;;;;;;;3.10;0.77;;;23.40;99.90;;;;;;5052498;28;20025;-63
2022/10/21 05:11:36;;;;;;;1.65;0.80;;;23.60;99.10;;;;;;5053032;28;20769;-62
2022/10/21 05:14:04;;;;;;;5.30;1.35;;;23.60;99.00;;;;;;5055070;28;20099;-62
2022/10/21 05:16:31;;;;;;;3.15;1.27;;;23.80;98.60;;;;;;5056125;28;20021;-62
2022/10/21 05:18:59;;;;;;;3.30;1.25;;;24.00;99.40;;;;;;5054969;28;20485;-63
2022/10/21 05:21:26;;;;;;;2.45;1.10;;;24.20;98.20;;;;;;5056949;28;20083;-62
2022/10/21 05:23:54;;;;;;;3.75;1.27;;;24.30;97.70;;;;;;5055200;28;20032;-62
2022/10/21 05:26:23;;;;;;;2.90;1.38;;;24.30;97.40;;;;;;5054178;28;20062;-63
2022/10/21 05:28:50;;;;;;;2.45;1.30;;;24.40;96.40;;;;;;5056552;28;20047;-70
2022/10/21 05:31:17;;;;;;;2.20;1.10;;;24.40;96.80;;;;;;5054108;28;20028;-65
2022/10/21 05:33:45;;;;;;;9.85;1.80;;;24.20;96.80;;;;;;5070511;28;20090;-64
2022/10/21 05:36:12;;;;;;;4.95;1.48;;;24.20;97.80;;;;;;5063096;28;20012;-64
2022/10/21 05:38:39;;;;;;;2.45;1.13;;;24.30;97.50;;;;;;5063216;28;20028;-64
2022/10/21 05:41:07;;;;;;;3.92;1.45;;;24.40;98.30;;;;;;5067941;28;20078;-64
2022/10/21 05:43:34;;;;;;;4.10;0.88;;;24.60;97.30;;;;;;5071664;28;20520;-65
2022/10/21 05:46:01;;;;;;;1.70;1.00;;;24.60;95.20;;;;;;5058574;28;20021;-65
2022/10/21 05:48:29;;;;;;;3.42;0.80;;;24.50;95.90;;;;;;5062737;28;20033;-64
2022/10/21 05:50:56;;;;;;;0.80;0.60;;;24.60;95.40;;;;;;5059432;28;20116;-63
2022/10/21 05:53:24;;;;;;;1.00;0.60;;;24.60;92.30;;;;;;5054038;28;20045;-62
2022/10/21 05:56:00;;;;;;;1.25;0.50;;;24.70;92.60;;;;;;5056123;28;20416;-63
2022/10/21 05:58:28;;;;;;;2.50;0.68;;;24.70;92.00;;;;;;5067008;28;20033;-62
2022/10/21 06:00:55;;;;;;;1.88;0.60;;;24.70;91.70;;;;;;5068725;28;20052;-62
2022/10/21 06:03:28;;;;;;;0.70;0.70;;;24.60;91.40;;;;;;5056635;28;20028;-63
2022/10/21 06:06:00;;;;;;;1.27;0.50;;;24.50;91.00;;;;;;5060863;28;20024;-63
2022/10/21 06:08:28;;;;;;;1.00;0.50;;;24.30;90.40;;;;;;5064568;28;20104;-62
2022/10/21 06:11:03;;;;;;;2.75;0.70;;;24.10;90.90;;;;;;5068750;28;20381;-62
2022/10/21 06:13:31;;;;;;;1.02;0.47;;;24.00;90.80;;;;;;5058236;28;20040;-62
2022/10/21 06:15:59;;;;;;;2.25;0.90;;;23.90;91.40;;;;;;5065964;28;20060;-63
2022/10/21 06:18:27;;;;;;;5.55;0.70;;;23.90;93.00;;;;;;5064646;28;20020;-62
2022/10/21 06:20:54;;;;;;;2.78;1.50;;;23.80;94.00;;;;;;5058760;28;20363;-63
2022/10/21 06:23:22;;;;;;;4.88;0.90;;;23.70;94.00;;;;;;5051970;28;20025;-62
2022/10/21 06:26:03;;;;;;;5.28;2.22;;;23.50;95.30;;;;;;5067315;28;20023;-65
2022/10/21 06:28:34;;;;;;;7.32;1.00;;;23.50;95.20;;;;;;5061640;28;20024;-63
2022/10/21 06:31:01;;;;;;;2.60;0.90;;;23.40;95.00;;;;;;5056820;28;20025;-71
2022/10/21 06:33:29;;;;;;;2.97;0.95;;;23.40;95.00;;;;;;5068022;28;20036;-70
2022/10/21 06:35:56;;;;;;;2.92;0.88;;;23.40;95.10;;;;;;5056841;28;20096;-70
2022/10/21 06:38:24;;;;;;;1.65;0.60;;;23.40;94.70;;;;;;5061556;28;20060;-70
2022/10/21 06:40:53;;;;;;;5.65;1.13;;;23.40;94.90;;;;;;5051469;28;20033;-69
2022/10/21 06:43:20;;;;;;;2.78;1.52;;;23.30;95.30;;;;;;5067549;28;20024;-71
2022/10/21 06:45:47;;;;;;;1.13;0.80;;;23.30;95.80;;;;;;5056147;28;20017;-71
2022/10/21 06:48:14;;;;;;;2.05;0.85;;;23.30;96.00;;;;;;5062958;28;20094;-73
2022/10/21 06:50:42;;;;;;;5.13;1.67;;;23.20;96.60;;;;;;5049166;28;20150;-71
2022/10/21 06:53:09;;;;;;;2.42;0.98;;;23.10;96.50;;;;;;5050497;28;20071;-72
2022/10/21 06:55:36;;;;;;;3.90;0.95;;;23.00;96.60;;;;;;5067710;28;20028;-67
2022/10/21 06:58:04;;;;;;;4.60;1.20;;;23.00;96.80;;;;;;5056244;28;20071;-66
2022/10/21 07:00:31;;;;;;;6.00;1.02;;;22.90;96.70;;;;;;5060299;28;20017;-67
2022/10/21 07:02:58;;;;;;;3.40;1.42;;;22.90;97.30;;;;;;5059509;28;20034;-64
2022/10/21 07:05:26;;;;;;;2.75;1.00;;;22.90;97.40;;;;;;5052936;28;20025;-66
2022/10/21 07:07:53;;;;;;;5.60;1.65;;;22.80;97.60;;;;;;5052691;28;20020;-68
2022/10/21 07:10:20;;;;;;;6.53;2.13;;;22.70;97.80;;;;;;5058259;28;20017;-66
2022/10/21 07:12:48;;;;;;;5.20;2.25;;;22.70;98.10;;;;;;5067810;28;20066;-66
2022/10/21 07:15:15;;;;;;;5.45;1.92;;;22.60;98.30;;;;;;5054297;28;20027;-67
2022/10/21 07:17:42;;;;;;;9.23;1.38;;;22.60;98.40;;;;;;5059594;28;20033;-67
2022/10/21 07:20:10;;;;;;;5.72;1.58;;;22.50;98.70;;;;;;5048805;28;20028;-66
2022/10/21 07:22:37;;;;;;;6.47;2.00;;;22.50;98.90;;;;;;5052831;28;20021;-67
2022/10/21 07:25:07;;;;;;;4.53;1.67;;;22.40;99.20;;;;;;5055236;28;20027;-68
2022/10/21 07:27:34;;;;;;;3.38;1.20;;;22.30;99.10;;;;;;5066691;28;20031;-65
2022/10/21 07:30:02;;;;;;;5.70;1.45;;;22.30;99.50;;;;;;5055123;28;20020;-66
2022/10/21 07:32:29;;;;;;;6.32;2.47;;;22.20;99.50;;;;;;5059318;28;20513;-66
2022/10/21 07:34:56;;;;;;;6.57;1.63;;;22.20;99.60;;;;;;5050194;28;20492;-64
2022/10/21 07:37:23;;;;;;;5.97;1.63;;;22.10;99.30;;;;;;5066487;28;20025;-67
2022/10/21 07:39:51;;;;;;;5.63;1.55;;;22.00;99.20;;;;;;5055026;28;20094;-67
2022/10/21 07:42:18;;;;;;;4.72;1.70;;;22.00;99.00;;;;;;5062133;28;20028;-66
2022/10/21 07:44:45;;;;;;;6.22;1.77;;;21.90;98.80;;;;;;5057681;28;20093;-65
2022/10/21 07:47:13;;;;;;;6.95;2.03;;;21.80;98.80;;;;;;5066235;28;20020;-65
2022/10/21 07:49:40;;;;;;;5.63;1.80;;;21.70;99.00;;;;;;5044137;28;20195;-64
2022/10/21 07:52:07;;;;;;;7.47;1.83;;;21.60;99.30;;;;;;5061113;28;20098;-66
2022/10/21 07:54:34;;;;;;;3.40;1.40;;;21.50;99.60;;;;;;5059791;28;20081;-67
2022/10/21 07:57:02;;;;;;;4.68;1.27;;;21.40;99.60;;;;;;5054915;28;20056;-65
2022/10/21 07:59:29;;;;;;;4.63;1.10;;;21.30;99.60;;;;;;5051592;28;20033;-66
2022/10/21 08:01:56;;;;;;;9.15;1.38;;;21.30;99.90;;;;;;5064593;28;20033;-64
2022/10/21 08:04:28;;;;;;;5.45;1.58;;;21.20;99.90;;;;;;5058490;28;20500;-65
2022/10/21 08:06:56;;;;;;;5.00;1.15;;;21.10;99.90;;;;;;5047106;28;20033;-65
2022/10/21 08:09:25;;;;;;;7.43;1.55;;;21.00;99.90;;;;;;5059296;28;20469;-65
2022/10/21 08:11:52;;;;;;;6.13;1.25;;;20.90;99.90;;;;;;5048462;28;20033;-64
2022/10/21 08:14:19;;;;;;;3.20;1.30;;;20.80;99.90;;;;;;5046290;28;20035;-66
2022/10/21 08:16:52;;;;;;;3.47;1.23;;;20.70;99.90;;;;;;5048044;28;20029;-64
2022/10/21 08:19:26;;;;;;;3.83;0.93;;;20.60;99.90;;;;;;5047473;28;20033;-64
2022/10/21 08:21:53;;;;;;;5.60;1.63;;;20.60;99.90;;;;;;5050921;28;20044;-65
2022/10/21 08:24:22;;;;;;;5.85;1.20;;;20.50;99.90;;;;;;5047687;28;20052;-66
2022/10/21 08:26:50;;;;;;;3.13;1.25;;;20.40;99.90;;;;;;5046028;28;20686;-68
2022/10/21 08:29:18;;;;;;;4.22;1.67;;;20.30;99.90;;;;;;5036743;28;20021;-64
2022/10/21 08:31:46;;;;;;;4.22;1.45;;;20.20;99.90;;;;;;5061073;28;20081;-65
2022/10/21 08:34:13;;;;;;;4.82;2.33;;;20.10;99.90;;;;;;5051271;28;20055;-64
2022/10/21 08:36:41;;;;;;;3.22;1.55;;;20.00;99.90;;;;;;5051748;28;20025;-65
2022/10/21 08:39:08;;;;;;;3.60;1.05;;;20.00;99.90;;;;;;5048201;28;20057;-65
2022/10/21 08:41:45;;;;;;;2.67;0.90;;;20.00;99.90;;;;;;5046993;28;20028;-64
2022/10/21 08:44:38;;;;;;;4.28;1.15;;;19.90;99.90;;;;;;5051471;28;20024;-64
2022/10/21 08:47:18;;;;;;;5.22;1.50;;;19.90;99.90;;;;;;5061513;28;20032;-63
2022/10/21 08:50:02;;;;;;;3.00;1.10;;;19.80;99.90;;;;;;5046051;28;20033;-63
2022/10/21 08:52:40;;;;;;;2.15;0.95;;;19.80;99.90;;;;;;5051889;28;20557;-63
2022/10/21 08:55:22;;;;;;;3.88;1.02;;;19.70;99.90;;;;;;5051358;28;20113;-65
2022/10/21 08:57:52;;;;;;;2.38;0.95;;;19.80;99.90;;;;;;5036462;28;20025;-69
2022/10/21 09:00:28;;;;;;;5.70;1.92;;;19.70;99.90;;;;;;5052316;28;20021;-68
2022/10/21 09:03:14;;;;;;;4.28;0.95;;;19.70;99.90;;;;;;5057894;28;20028;-64
2022/10/21 09:06:13;;;;;;;2.80;1.00;;;19.70;99.90;;;;;;5046898;28;20508;-67
2022/10/21 09:08:55;;;;;;;2.65;1.00;;;19.70;99.90;;;;;;5052756;28;20036;-68
2022/10/21 09:11:53;;;;;;;2.03;0.90;;;19.60;99.90;;;;;;5055810;28;20036;-65
2022/10/21 09:14:29;;;;;;;4.68;1.00;;;19.50;99.90;;;;;;5049138;28;20040;-67
2022/10/21 09:17:49;;;;;;;3.67;0.90;;;19.50;99.90;;;;;;5054068;28;20036;-62
2022/10/21 09:20:17;;;;;;;2.85;1.23;;;19.40;99.90;;;;;;5003381;28;20797;-65
2022/10/21 09:23:16;;;;;;;1.42;0.70;;;19.40;99.90;;;;;;5042644;28;20080;-68
2022/10/21 09:26:07;;;;;;;6.60;1.10;;;19.40;99.90;;;;;;5026669;28;20116;-66
2022/10/21 09:28:36;;;;;;;4.30;1.20;;;19.30;99.90;;;;;;5046325;28;20029;-65
2022/10/21 09:31:14;;;;;;;4.78;1.05;;;19.30;99.90;;;;;;5044090;28;20036;-64
2022/10/21 09:33:51;;;;;;;4.60;1.35;;;19.30;99.90;;;;;;5043105;28;20417;-66
2022/10/21 09:36:38;;;;;;;3.55;1.00;;;19.30;99.90;;;;;;5052114;28;20075;-68
2022/10/21 09:39:21;;;;;;;4.07;1.35;;;19.30;99.90;;;;;;5044989;28;20033;-67
2022/10/21 09:41:55;;;;;;;4.75;1.70;;;19.20;99.90;;;;;;5042581;28;20044;-65
2022/10/21 09:44:23;;;;;;;2.85;0.90;;;19.10;99.90;;;;;;5054754;28;20503;-68
2022/10/21 09:46:53;;;;;;;3.95;1.85;;;19.10;99.90;;;;;;5052394;28;20482;-67
2022/10/21 09:49:35;;;;;;;2.90;1.25;;;19.00;99.90;;;;;;5041623;28;20504;-68
2022/10/21 09:52:05;;;;;;;6.25;1.48;;;18.90;99.90;;;;;;5052947;28;20057;-66
2022/10/21 09:54:39;;;;;;;2.25;0.95;;;18.90;99.90;;;;;;5049859;28;20029;-64
2022/10/21 09:57:14;;;;;;;2.00;1.07;;;18.80;99.90;;;;;;5061056;28;20112;-67
2022/10/21 09:59:57;;;;;;;2.78;0.90;;;18.70;99.90;;;;;;5041141;28;20262;-69
2022/10/21 10:02:36;;;;;;;7.78;1.23;;;18.60;99.90;;;;;;5059823;28;20107;-67
2022/10/21 10:05:37;;;;;;;9.05;1.38;;;18.50;99.90;;;;;;5056471;28;20060;-67
2022/10/21 10:08:31;;;;;;;4.45;1.60;;;18.50;99.90;;;;;;5044228;28;20037;-65
2022/10/21 10:11:08;;;;;;;3.05;1.27;;;18.40;99.90;;;;;;5062327;28;20056;-67
2022/10/21 10:13:51;;;;;;;4.35;2.10;;;18.40;99.90;;;;;;5052162;28;20524;-65
2022/10/21 10:16:32;;;;;;;8.45;2.15;;;18.50;99.90;;;;;;5053537;28;20482;-64
2022/10/21 10:19:20;;;;;;;5.28;1.30;;;18.50;99.90;;;;;;5057610;28;20017;-61
2022/10/21 10:22:06;;;;;;;6.45;1.77;;;18.60;99.90;;;;;;5038410;28;20497;-61
2022/10/21 10:24:34;;;;;;;2.78;1.33;;;18.60;99.90;;;;;;5053442;28;20029;-62
2022/10/21 10:27:13;;;;;;;5.20;1.70;;;18.60;99.90;;;;;;5050830;28;20025;-61
2022/10/21 10:29:42;;;;;;;5.22;1.20;;;18.60;99.90;;;;;;5050694;28;20021;-62
2022/10/21 10:32:15;;;;;;;2.60;1.40;;;18.60;99.90;;;;;;5061740;28;20033;-61
2022/10/21 10:35:01;;;;;;;3.40;1.60;;;18.60;99.90;;;;;;5049182;28;20106;-62
2022/10/21 10:37:33;;;;;;;4.05;1.58;;;18.60;99.90;;;;;;5049308;28;20051;-62
2022/10/21 10:40:05;;;;;;;3.53;1.58;;;18.60;99.90;;;;;;5049209;28;20029;-61
2022/10/21 10:42:43;;;;;;;6.07;2.60;;;18.60;99.90;;;;;;5047515;28;20032;-61
2022/10/21 10:45:19;;;;;;;5.63;3.42;;;18.70;99.90;;;;;;5064538;28;20483;-61
2022/10/21 10:48:05;;;;;;;3.90;2.03;;;18.70;99.90;;;;;;5038591;28;20025;-63
2022/10/21 10:50:45;;;;;;;7.47;2.85;;;18.80;99.90;;;;;;5057288;28;20090;-62
2022/10/21 10:53:36;;;;;;;5.22;2.03;;;18.80;99.90;;;;;;5051549;28;20057;-60
2022/10/21 10:56:18;;;;;;;5.97;2.00;;;18.70;99.90;;;;;;5035518;28;20025;-60
2022/10/21 10:59:20;;;;;;;3.92;2.30;;;18.60;99.90;;;;;;5061059;28;20020;-61
2022/10/21 11:02:08;;;;;;;4.28;2.80;;;18.60;99.90;;;;;;5049723;28;20032;-60
2022/10/21 11:04:39;;;;;;;4.20;2.33;;;18.60;99.90;;;;;;5056469;28;20111;-62
2022/10/21 11:07:33;;;;;;;3.60;2.70;;;18.60;99.90;;;;;;5051633;28;20029;-62
2022/10/21 11:10:56;;;;;;;5.47;2.40;;;18.60;99.90;;;;;;5046890;28;20512;-62
2022/10/21 11:13:24;;;;;;;5.43;3.42;;;18.60;99.90;;;;;;5020106;28;20402;-61
2022/10/21 11:16:14;;;;;;;7.95;2.65;;;18.60;99.90;;;;;;5051181;28;20532;-61
2022/10/21 11:18:59;;;;;;;13.55;3.58;;;18.50;99.90;;;;;;5044383;28;20041;-61
2022/10/21 11:22:05;;;;;;;5.10;3.40;;;18.60;99.90;;;;;;5049989;28;20064;-61
2022/10/21 11:24:55;;;;;;;4.10;3.22;;;18.60;99.90;;;;;;5060636;28;20962;-62
2022/10/21 11:27:25;;;;;;;7.68;4.68;;;18.50;99.90;;;;;;5048517;28;20035;-63
2022/10/21 11:30:13;;;;;;;13.73;5.40;;;18.40;99.90;;;;;;5049557;28;20482;-60
2022/10/21 11:33:15;;;;;;;10.85;6.97;;;18.30;99.90;;;;;;5050254;28;20558;-60
2022/10/21 11:35:46;;;;;;;7.90;4.72;;;18.20;99.90;;;;;;5034897;28;20068;-61
2022/10/21 11:38:28;;;;;;;7.30;5.30;;;18.10;99.90;;;;;;5054829;28;20101;-61
2022/10/21 11:41:07;;;;;;;11.00;7.00;;;18.10;99.90;;;;;;5061176;28;20124;-61
2022/10/21 11:43:45;;;;;;;14.32;8.57;;;18.10;99.90;;;;;;5048791;28;20124;-60
2022/10/21 11:46:22;;;;;;;14.60;8.27;;;18.20;99.90;;;;;;5051902;28;20503;-61
2022/10/21 11:49:05;;;;;;;13.00;8.38;;;18.20;99.90;;;;;;5059450;28;20025;-59
2022/10/21 11:51:40;;;;;;;13.88;7.20;;;18.20;99.90;;;;;;5053375;28;20044;-61
2022/10/21 11:54:35;;;;;;;11.77;8.38;;;18.30;99.90;;;;;;5049518;28;20029;-62
2022/10/21 11:57:15;;;;;;;13.20;6.68;;;18.20;99.90;;;;;;5044366;28;20021;-60
2022/10/21 11:59:58;;;;;;;8.15;5.80;;;18.20;99.90;;;;;;5042072;28;20120;-62
2022/10/21 12:02:59;;;;;;;11.07;5.05;;;18.10;99.90;;;;;;5044073;28;20532;-63
2022/10/21 12:05:56;;;;;;;10.30;5.20;;;18.00;99.90;;;;;;5051600;28;20064;-63
2022/10/21 12:08:48;;;;;;;8.82;4.93;;;18.00;99.90;;;;;;5045646;28;20502;-61
2022/10/21 12:11:25;;;;;;;7.38;4.03;;;17.90;99.90;;;;;;5055724;28;20032;-61
2022/10/21 12:14:08;;;;;;;6.95;3.78;;;17.80;99.90;;;;;;5064461;28;20043;-60
2022/10/21 12:16:35;;;;;;;11.45;4.13;;;17.80;99.90;;;;;;5051438;28;20031;-61
2022/10/21 12:19:09;;;;;;;7.40;3.90;;;17.70;99.90;;;;;;5054384;28;20510;-61
2022/10/21 12:21:41;;;;;;;7.75;3.42;;;17.70;99.90;;;;;;5061943;28;20112;-60
2022/10/21 12:24:26;;;;;;;6.07;3.38;;;17.60;99.90;;;;;;5061701;28;20087;-61
2022/10/21 12:27:13;;;;;;;10.82;3.70;;;17.60;99.90;;;;;;5057382;28;20079;-60
2022/10/21 12:29:52;;;;;;;6.90;3.45;;;17.70;99.90;;;;;;5045983;28;20017;-62
2022/10/21 12:32:33;;;;;;;11.18;3.53;;;17.70;99.90;;;;;;5048606;28;20061;-61
2022/10/21 12:35:02;;;;;;;8.52;3.60;;;17.70;99.90;;;;;;5063336;28;20021;-61
2022/10/21 12:38:05;;;;;;;7.57;2.92;;;17.70;99.90;;;;;;5051963;28;20024;-63
2022/10/21 12:40:32;;;;;;;9.68;3.92;;;17.60;99.90;;;;;;5015408;28;20033;-62
2022/10/21 12:43:21;;;;;;;8.35;4.82;;;17.60;99.90;;;;;;5050900;28;20032;-62
2022/10/21 12:46:06;;;;;;;11.32;3.40;;;17.50;99.90;;;;;;5052331;28;20393;-60
2022/10/21 12:49:05;;;;;;;8.30;4.05;;;17.50;99.90;;;;;;5049853;28;20029;-61
2022/10/21 12:51:35;;;;;;;8.80;3.40;;;17.50;99.90;;;;;;5050393;28;20052;-63
2022/10/21 12:54:02;;;;;;;9.02;4.05;;;17.40;99.90;;;;;;5054625;28;20128;-63
2022/10/21 12:56:47;;;;;;;9.90;2.78;;;17.40;99.90;;;;;;5047812;28;20024;-64
2022/10/21 12:59:33;;;;;;;5.63;2.92;;;17.40;99.90;;;;;;5049978;28;20567;-64
2022/10/21 13:02:07;;;;;;;10.30;3.92;;;17.30;99.90;;;;;;5057882;28;20447;-63
2022/10/21 13:04:34;;;;;;;10.60;3.42;;;17.30;99.90;;;;;;5046142;28;20032;-63
2022/10/21 13:07:04;;;;;;;8.98;3.00;;;17.30;99.90;;;;;;5053531;28;20087;-63
2022/10/21 13:09:31;;;;;;;4.65;2.83;;;17.30;99.90;;;;;;5051039;28;20036;-63
2022/10/21 13:12:10;;;;;;;10.43;2.97;;;17.20;99.90;;;;;;5056984;28;20440;-63
2022/10/21 13:14:48;;;;;;;8.40;2.95;;;17.20;99.90;;;;;;5054882;28;20039;-62
2022/10/21 13:17:21;;;;;;;9.35;3.03;;;17.20;99.90;;;;;;5059762;28;20025;-63